Time;durP1;ratioP1;P1;durP2;ratioP2;P2;SDS_P1;SDS_P2;PMS_P1;PMS_P2;Temp;Humidity;BMP_temperature;BMP_pressure;BME280_temperature;BME280_humidity;BME280_pressure;Samples;Min_cycle;Max_cycle;Signal;HPM_P1;HPM_P2
2021/09/03 00:00:11;;;;;;;8.75;6.65;;;15.80;78.30;;;;;;6251036;28;20924;-79
2021/09/03 00:03:13;;;;;;;7.65;6.88;;;15.80;78.20;;;;;;6250631;28;20430;-79
2021/09/03 00:06:16;;;;;;;10.30;7.82;;;15.80;78.40;;;;;;6250551;28;20498;-78
2021/09/03 00:09:18;;;;;;;9.23;8.10;;;15.80;78.30;;;;;;6251031;28;20474;-79
2021/09/03 00:12:20;;;;;;;10.10;7.30;;;15.70;79.20;;;;;;6251521;28;20427;-79
2021/09/03 00:15:22;;;;;;;8.63;7.60;;;15.70;79.20;;;;;;6251069;28;20498;-79
2021/09/03 00:18:24;;;;;;;9.48;7.10;;;15.70;79.30;;;;;;6251090;28;20415;-78
2021/09/03 00:21:27;;;;;;;8.43;7.03;;;15.70;79.50;;;;;;6250698;28;20407;-79
2021/09/03 00:24:29;;;;;;;9.43;6.95;;;15.60;79.10;;;;;;6251075;28;20434;-79
2021/09/03 00:27:30;;;;;;;8.55;6.60;;;15.50;78.80;;;;;;6250775;28;20505;-80
2021/09/03 00:30:32;;;;;;;8.20;7.40;;;15.50;78.60;;;;;;6250763;28;20415;-79
2021/09/03 00:33:34;;;;;;;8.07;7.07;;;15.40;79.30;;;;;;6245470;28;20421;-79
2021/09/03 00:36:37;;;;;;;11.10;7.65;;;15.40;79.00;;;;;;6226845;28;20526;-79
2021/09/03 00:39:39;;;;;;;9.82;8.85;;;15.30;79.30;;;;;;6272773;22;20498;-77
2021/09/03 00:42:41;;;;;;;8.73;7.83;;;15.30;80.00;;;;;;6198842;28;20657;-79
2021/09/03 00:45:43;;;;;;;8.52;7.40;;;15.10;80.20;;;;;;6198347;28;20420;-78
2021/09/03 00:48:44;;;;;;;10.00;8.03;;;15.00;80.30;;;;;;6182277;28;20436;-79
2021/09/03 00:51:49;;;;;;;10.57;7.65;;;15.10;80.30;;;;;;6181577;28;20499;-78
2021/09/03 00:54:52;;;;;;;9.73;7.57;;;15.00;80.20;;;;;;6178776;28;21050;-79
2021/09/03 00:57:54;;;;;;;11.73;7.85;;;14.90;80.00;;;;;;6168334;28;20516;-79
2021/09/03 01:00:56;;;;;;;10.57;7.25;;;14.90;80.00;;;;;;6177197;28;20449;-78
2021/09/03 01:03:57;;;;;;;12.13;7.90;;;14.80;80.40;;;;;;6175605;28;20866;-78
2021/09/03 01:07:00;;;;;;;8.32;7.28;;;14.70;80.70;;;;;;6175358;28;20506;-78
2021/09/03 01:10:03;;;;;;;8.98;7.05;;;14.70;80.70;;;;;;6174862;28;20426;-79
2021/09/03 01:13:06;;;;;;;7.70;6.97;;;14.60;80.70;;;;;;6174779;28;20440;-79
2021/09/03 01:16:08;;;;;;;9.15;7.28;;;14.60;80.70;;;;;;6174920;28;20472;-79
2021/09/03 01:19:10;;;;;;;8.33;7.47;;;14.60;80.40;;;;;;6174521;28;20467;-79
2021/09/03 01:22:13;;;;;;;8.20;7.38;;;14.50;80.40;;;;;;6174481;28;20767;-79
2021/09/03 01:25:15;;;;;;;8.15;7.32;;;14.50;80.60;;;;;;6177544;28;20483;-78
2021/09/03 01:28:17;;;;;;;8.45;7.32;;;14.40;80.90;;;;;;6181086;28;20446;-79
2021/09/03 01:31:19;;;;;;;9.30;7.53;;;14.50;80.60;;;;;;6175800;28;20423;-79
2021/09/03 01:34:21;;;;;;;13.65;7.60;;;14.40;80.20;;;;;;6174356;28;20468;-79
2021/09/03 01:37:24;;;;;;;10.95;7.32;;;14.40;80.30;;;;;;6174358;28;20478;-79
2021/09/03 01:40:26;;;;;;;8.73;7.57;;;14.40;80.70;;;;;;6174372;28;20922;-79
2021/09/03 01:43:28;;;;;;;9.00;8.05;;;14.30;81.10;;;;;;6174494;28;20511;-79
2021/09/03 01:46:30;;;;;;;9.35;8.35;;;14.30;80.60;;;;;;6173854;28;20511;-79
2021/09/03 01:49:31;;;;;;;9.77;8.10;;;14.30;81.10;;;;;;6173917;28;20444;-78
2021/09/03 01:52:35;;;;;;;10.40;8.50;;;14.30;81.20;;;;;;6175835;28;20440;-80
2021/09/03 01:55:36;;;;;;;12.68;7.88;;;14.20;81.50;;;;;;6174343;28;20428;-79
2021/09/03 01:58:38;;;;;;;9.85;7.80;;;14.20;81.40;;;;;;6175941;28;20428;-79
2021/09/03 02:01:40;;;;;;;10.32;9.15;;;14.20;81.80;;;;;;6175594;28;20505;-78
2021/09/03 02:04:42;;;;;;;11.45;8.00;;;14.10;81.50;;;;;;6177219;28;20483;-79
2021/09/03 02:07:45;;;;;;;8.02;6.78;;;14.10;81.70;;;;;;6176666;28;20424;-79
2021/09/03 02:10:47;;;;;;;8.37;6.90;;;14.00;81.70;;;;;;6175991;28;20456;-78
2021/09/03 02:13:49;;;;;;;9.45;8.10;;;14.00;81.00;;;;;;6174842;28;20922;-78
2021/09/03 02:16:51;;;;;;;9.17;7.23;;;13.90;81.20;;;;;;6175404;28;20579;-78
2021/09/03 02:19:52;;;;;;;10.75;7.78;;;13.90;81.20;;;;;;6174644;28;20472;-79
2021/09/03 02:22:56;;;;;;;8.73;7.07;;;13.90;82.30;;;;;;6173874;28;20422;-79
2021/09/03 02:25:57;;;;;;;9.85;7.35;;;13.90;81.60;;;;;;6176490;28;20924;-79
2021/09/03 02:28:59;;;;;;;9.80;8.07;;;14.00;81.20;;;;;;6173187;28;20530;-78
2021/09/03 02:32:01;;;;;;;9.23;7.70;;;14.00;80.70;;;;;;6173745;28;20808;-78
2021/09/03 02:35:04;;;;;;;8.25;7.45;;;14.00;80.70;;;;;;6172651;28;20459;-79
2021/09/03 02:38:07;;;;;;;9.88;7.55;;;13.90;81.00;;;;;;6172815;28;20917;-79
2021/09/03 02:41:09;;;;;;;8.45;7.50;;;13.90;80.90;;;;;;6172540;28;20499;-78
2021/09/03 02:44:11;;;;;;;11.55;8.85;;;13.90;81.00;;;;;;6173406;28;20443;-79
2021/09/03 02:47:13;;;;;;;8.65;7.78;;;13.80;81.40;;;;;;6172814;28;20992;-79
2021/09/03 02:50:15;;;;;;;10.17;7.27;;;13.80;81.10;;;;;;6172352;28;20601;-79
2021/09/03 02:53:18;;;;;;;9.27;7.82;;;13.80;80.90;;;;;;6172989;28;20415;-79
2021/09/03 02:56:20;;;;;;;9.82;7.13;;;13.80;80.50;;;;;;6172471;28;20472;-79
2021/09/03 02:59:22;;;;;;;7.70;6.90;;;13.80;80.70;;;;;;6171573;28;20992;-79
2021/09/03 03:02:24;;;;;;;9.60;8.00;;;13.80;80.30;;;;;;6171608;28;20416;-79
2021/09/03 03:05:25;;;;;;;9.20;7.80;;;13.70;80.80;;;;;;6172664;28;20551;-79
2021/09/03 03:08:28;;;;;;;8.23;7.45;;;13.70;80.80;;;;;;6173420;28;20439;-78
2021/09/03 03:11:30;;;;;;;8.98;8.00;;;13.60;81.50;;;;;;6171942;28;20531;-79
2021/09/03 03:14:33;;;;;;;8.40;6.75;;;13.50;81.70;;;;;;6172083;28;20432;-78
2021/09/03 03:17:35;;;;;;;13.23;8.07;;;13.50;81.90;;;;;;6172386;28;20495;-79
2021/09/03 03:20:37;;;;;;;9.98;7.85;;;13.50;82.20;;;;;;6172406;28;20590;-79
2021/09/03 03:23:40;;;;;;;8.33;7.53;;;13.50;81.70;;;;;;6172173;28;21004;-79
2021/09/03 03:26:42;;;;;;;8.83;7.27;;;13.50;81.60;;;;;;6171966;28;20507;-79
2021/09/03 03:29:44;;;;;;;8.25;7.43;;;13.40;80.90;;;;;;6172142;28;20455;-79
2021/09/03 03:32:46;;;;;;;9.37;7.47;;;13.40;81.50;;;;;;6172942;28;20805;-79
2021/09/03 03:35:47;;;;;;;8.13;7.03;;;13.30;81.90;;;;;;6172049;28;20968;-79
2021/09/03 03:38:51;;;;;;;9.98;7.85;;;13.50;81.70;;;;;;6172643;28;20439;-78
2021/09/03 03:41:53;;;;;;;10.00;8.15;;;13.40;82.80;;;;;;6172037;28;20424;-78
2021/09/03 03:44:54;;;;;;;10.35;8.07;;;13.40;82.10;;;;;;6172252;28;20810;-78
2021/09/03 03:47:56;;;;;;;7.95;6.82;;;13.50;81.60;;;;;;6172772;28;20479;-78
2021/09/03 03:50:58;;;;;;;8.63;6.85;;;13.50;81.30;;;;;;6172438;28;20420;-79
2021/09/03 03:54:01;;;;;;;8.98;7.47;;;13.50;80.90;;;;;;6172402;28;20427;-79
2021/09/03 03:57:04;;;;;;;10.18;8.38;;;13.50;81.00;;;;;;6172393;28;20471;-79
2021/09/03 04:00:07;;;;;;;9.65;8.60;;;13.50;81.30;;;;;;6171940;28;20480;-79
2021/09/03 04:03:09;;;;;;;12.02;8.75;;;13.40;81.10;;;;;;6173632;28;20420;-78
2021/09/03 04:06:11;;;;;;;10.30;7.53;;;13.40;81.50;;;;;;6173141;28;21032;-79
2021/09/03 04:09:14;;;;;;;8.02;7.22;;;13.40;81.60;;;;;;6168021;28;21211;-78
2021/09/03 04:12:16;;;;;;;8.95;7.53;;;13.30;82.80;;;;;;6147952;29;20465;-79
2021/09/03 04:15:17;;;;;;;8.40;6.75;;;13.30;82.50;;;;;;6167100;28;20482;-78
2021/09/03 04:18:19;;;;;;;9.30;7.75;;;13.30;82.30;;;;;;6171128;28;20536;-78
2021/09/03 04:21:21;;;;;;;12.27;8.32;;;13.30;82.40;;;;;;6171804;28;20438;-78
2021/09/03 04:24:24;;;;;;;10.80;7.97;;;13.40;82.50;;;;;;6172738;28;20523;-78
2021/09/03 04:27:26;;;;;;;8.50;7.70;;;13.40;81.80;;;;;;6171938;28;20455;-78
2021/09/03 04:30:28;;;;;;;9.65;8.73;;;13.30;81.80;;;;;;6171720;28;20471;-78
2021/09/03 04:33:30;;;;;;;10.23;8.57;;;13.30;81.60;;;;;;6171422;28;20499;-79
2021/09/03 04:36:31;;;;;;;9.05;8.15;;;13.30;81.40;;;;;;6171305;28;21014;-78
2021/09/03 04:39:35;;;;;;;8.33;7.53;;;13.30;81.50;;;;;;6171191;28;20416;-78
2021/09/03 04:42:36;;;;;;;9.47;8.07;;;13.20;81.30;;;;;;6170678;28;20591;-78
2021/09/03 04:45:38;;;;;;;10.82;8.07;;;13.20;82.30;;;;;;6171596;28;20495;-78
2021/09/03 04:48:40;;;;;;;9.68;7.43;;;13.30;81.80;;;;;;6172000;28;21021;-77
2021/09/03 04:51:42;;;;;;;10.15;8.35;;;13.10;81.60;;;;;;6171707;28;20498;-77
2021/09/03 04:54:45;;;;;;;10.57;8.63;;;13.10;81.60;;;;;;6171384;28;20424;-78
2021/09/03 04:57:47;;;;;;;8.88;7.78;;;13.10;82.00;;;;;;6171851;28;20864;-77
2021/09/03 05:00:49;;;;;;;9.38;8.02;;;13.20;82.40;;;;;;6181176;28;20463;-78
2021/09/03 05:03:50;;;;;;;8.55;7.50;;;13.20;82.30;;;;;;6177124;28;20511;-79
2021/09/03 05:06:52;;;;;;;10.13;8.48;;;13.30;82.80;;;;;;6170900;28;20507;-78
2021/09/03 05:09:55;;;;;;;10.82;8.40;;;13.40;82.20;;;;;;6171151;28;20479;-78
2021/09/03 05:12:57;;;;;;;13.57;8.75;;;13.50;82.10;;;;;;6170322;28;20483;-78
2021/09/03 05:15:59;;;;;;;9.88;7.35;;;13.50;82.20;;;;;;6170644;28;20442;-79
2021/09/03 05:19:01;;;;;;;8.77;7.35;;;13.70;82.00;;;;;;6171003;28;20464;-79
2021/09/03 05:22:03;;;;;;;10.13;8.50;;;13.80;81.60;;;;;;6170045;28;20953;-78
2021/09/03 05:25:09;;;;;;;10.63;8.10;;;14.00;81.50;;;;;;6171819;28;20805;-77
2021/09/03 05:28:10;;;;;;;9.38;8.10;;;14.10;80.80;;;;;;6172405;28;20440;-79
2021/09/03 05:31:12;;;;;;;9.32;7.63;;;14.40;80.30;;;;;;6173079;28;21001;-77
2021/09/03 05:34:14;;;;;;;7.97;7.28;;;14.60;79.80;;;;;;6174335;28;20502;-77
2021/09/03 05:37:16;;;;;;;12.00;7.32;;;14.70;79.50;;;;;;6174337;28;21114;-77
2021/09/03 05:40:20;;;;;;;11.75;8.93;;;14.90;78.50;;;;;;6174536;28;20476;-78
2021/09/03 05:43:22;;;;;;;8.45;7.40;;;15.10;78.50;;;;;;6153916;28;20947;-77
2021/09/03 05:46:24;;;;;;;8.52;7.25;;;15.20;77.30;;;;;;6150016;28;20422;-77
2021/09/03 05:49:25;;;;;;;8.93;7.05;;;15.50;76.50;;;;;;6154807;28;20451;-77
2021/09/03 05:52:27;;;;;;;7.82;6.65;;;15.60;76.10;;;;;;6174492;28;20526;-78
2021/09/03 05:55:30;;;;;;;7.78;6.45;;;15.80;76.10;;;;;;6173722;28;20455;-76
2021/09/03 05:58:35;;;;;;;10.95;7.72;;;15.90;74.80;;;;;;6174097;28;20515;-77
2021/09/03 06:01:37;;;;;;;8.23;6.38;;;16.10;74.80;;;;;;6173082;28;20891;-77
2021/09/03 06:04:38;;;;;;;8.55;6.22;;;16.30;74.00;;;;;;6172656;28;20450;-77
2021/09/03 06:07:41;;;;;;;8.75;6.72;;;16.50;74.10;;;;;;6173600;28;20531;-77
2021/09/03 06:10:44;;;;;;;7.32;6.55;;;16.80;72.90;;;;;;6173479;28;20416;-77
2021/09/03 06:13:45;;;;;;;7.97;7.00;;;17.00;72.10;;;;;;6173585;28;20526;-77
2021/09/03 06:16:47;;;;;;;8.40;6.53;;;17.20;70.80;;;;;;6173979;28;20451;-77
2021/09/03 06:19:49;;;;;;;7.70;6.32;;;17.40;70.70;;;;;;6173286;28;20452;-77
2021/09/03 06:22:51;;;;;;;7.70;6.23;;;17.50;70.70;;;;;;6173201;28;21004;-77
2021/09/03 06:25:54;;;;;;;7.88;6.70;;;17.80;69.60;;;;;;6173082;28;20494;-77
2021/09/03 06:28:56;;;;;;;7.18;5.97;;;18.10;68.90;;;;;;6173256;28;20651;-77
2021/09/03 06:31:58;;;;;;;8.00;6.47;;;18.40;67.20;;;;;;6173873;28;20439;-77
2021/09/03 06:35:02;;;;;;;7.53;5.95;;;18.50;67.70;;;;;;6172922;28;20435;-77
2021/09/03 06:38:03;;;;;;;7.60;5.88;;;18.70;67.50;;;;;;6173052;28;20493;-77
2021/09/03 06:41:07;;;;;;;9.05;6.85;;;19.00;66.60;;;;;;6173338;28;20476;-78
2021/09/03 06:44:09;;;;;;;8.43;7.20;;;19.30;65.00;;;;;;6176964;28;20533;-79
2021/09/03 06:47:12;;;;;;;9.57;6.53;;;19.50;64.30;;;;;;6176194;28;20838;-78
2021/09/03 06:50:16;;;;;;;6.53;5.82;;;19.60;63.40;;;;;;6176371;28;20431;-78
2021/09/03 06:53:18;;;;;;;9.77;6.65;;;19.60;63.70;;;;;;6175623;28;20414;-77
2021/09/03 06:56:21;;;;;;;6.90;5.70;;;19.80;62.80;;;;;;6177381;28;20450;-77
2021/09/03 06:59:24;;;;;;;7.60;6.50;;;20.10;61.70;;;;;;6175844;28;20423;-77
2021/09/03 07:02:26;;;;;;;7.78;6.45;;;20.30;61.00;;;;;;6176063;28;21233;-77
2021/09/03 07:05:27;;;;;;;8.25;5.60;;;20.40;60.40;;;;;;6175092;28;20535;-77
2021/09/03 07:08:29;;;;;;;6.75;5.82;;;20.50;60.50;;;;;;6176557;28;20567;-77
2021/09/03 07:11:33;;;;;;;7.05;6.32;;;20.50;60.60;;;;;;6176443;28;20794;-78
2021/09/03 07:14:34;;;;;;;9.43;6.70;;;20.80;60.40;;;;;;6177277;28;20945;-78
2021/09/03 07:17:36;;;;;;;11.45;6.50;;;21.10;59.40;;;;;;6177091;28;20424;-77
2021/09/03 07:20:38;;;;;;;7.38;6.63;;;21.30;58.30;;;;;;6176778;28;20475;-77
2021/09/03 07:23:40;;;;;;;7.18;6.47;;;21.50;57.40;;;;;;6176962;28;20506;-77
2021/09/03 07:26:43;;;;;;;7.93;6.00;;;21.50;58.00;;;;;;6175236;28;20460;-78
2021/09/03 07:29:45;;;;;;;6.55;5.85;;;21.60;58.60;;;;;;6176284;28;20455;-77
2021/09/03 07:32:47;;;;;;;6.50;5.88;;;21.90;57.00;;;;;;6176642;28;20445;-77
2021/09/03 07:35:49;;;;;;;7.60;5.53;;;22.20;56.20;;;;;;6175019;28;20424;-77
2021/09/03 07:38:51;;;;;;;7.85;5.65;;;22.50;56.10;;;;;;6176346;28;20535;-77
2021/09/03 07:41:54;;;;;;;7.22;5.18;;;22.80;54.70;;;;;;6175274;28;20491;-77
2021/09/03 07:44:56;;;;;;;7.03;6.32;;;23.10;53.80;;;;;;6175486;28;20528;-78
2021/09/03 07:47:58;;;;;;;6.57;5.87;;;23.20;53.40;;;;;;6152123;28;20416;-77
2021/09/03 07:51:00;;;;;;;6.67;5.97;;;23.30;53.70;;;;;;6167947;28;20559;-77
2021/09/03 07:54:02;;;;;;;6.60;5.30;;;23.50;52.40;;;;;;6165643;28;20502;-76
2021/09/03 07:57:05;;;;;;;6.60;5.60;;;23.50;52.70;;;;;;6151050;29;20531;-78
2021/09/03 08:00:08;;;;;;;7.80;5.63;;;23.50;53.80;;;;;;6150444;29;20531;-77
2021/09/03 08:03:10;;;;;;;8.80;5.65;;;23.60;52.00;;;;;;6169217;28;20492;-78
2021/09/03 08:06:12;;;;;;;7.57;5.57;;;23.60;52.10;;;;;;6157389;28;21014;-78
2021/09/03 08:09:14;;;;;;;8.93;5.68;;;23.70;52.00;;;;;;6151091;29;20537;-77
2021/09/03 08:12:17;;;;;;;6.30;5.60;;;23.90;51.70;;;;;;6151125;28;20445;-77
2021/09/03 08:15:19;;;;;;;7.88;5.72;;;24.00;51.00;;;;;;6149675;29;20457;-77
2021/09/03 08:18:21;;;;;;;6.63;5.97;;;24.10;50.90;;;;;;6159794;28;20948;-78
2021/09/03 08:21:23;;;;;;;7.40;5.87;;;24.10;50.40;;;;;;6167495;28;20420;-77
2021/09/03 08:24:24;;;;;;;7.47;6.15;;;24.00;51.00;;;;;;6175866;28;20522;-77
2021/09/03 08:27:28;;;;;;;9.20;5.95;;;23.90;51.40;;;;;;6177070;28;20428;-77
2021/09/03 08:30:29;;;;;;;6.85;6.15;;;23.90;51.40;;;;;;6176256;28;20511;-77
2021/09/03 08:33:31;;;;;;;7.45;5.82;;;24.00;50.80;;;;;;6186997;28;20428;-76
2021/09/03 08:36:33;;;;;;;6.03;4.85;;;23.90;51.40;;;;;;6179695;28;20436;-77
2021/09/03 08:39:35;;;;;;;8.33;6.67;;;24.00;51.50;;;;;;6172376;28;20428;-78
2021/09/03 08:42:39;;;;;;;7.03;5.55;;;24.10;51.20;;;;;;6171627;28;20507;-78
2021/09/03 08:45:42;;;;;;;6.72;5.30;;;24.00;51.80;;;;;;6171709;28;20498;-78
2021/09/03 08:48:46;;;;;;;7.15;6.03;;;24.00;50.90;;;;;;6172086;28;20898;-77
2021/09/03 08:51:48;;;;;;;8.98;5.45;;;24.10;51.80;;;;;;6163809;28;20452;-78
2021/09/03 08:54:49;;;;;;;8.13;6.43;;;24.40;51.40;;;;;;6174696;28;20614;-78
2021/09/03 08:57:53;;;;;;;7.13;5.47;;;24.70;50.60;;;;;;6175647;28;20412;-78
2021/09/03 09:01:13;;;;;;;6.18;5.57;;;24.80;49.40;;;;;;6175495;28;20865;-78
2021/09/03 09:04:17;;;;;;;7.90;6.10;;;24.90;50.50;;;;;;6176278;28;20992;-77
2021/09/03 09:07:19;;;;;;;7.97;5.80;;;25.10;49.20;;;;;;6162014;28;20831;-77
2021/09/03 09:10:25;;;;;;;11.48;5.95;;;25.20;49.30;;;;;;6155639;28;20560;-79
2021/09/03 09:13:32;;;;;;;7.55;6.03;;;25.30;49.70;;;;;;6155935;29;20594;-77
2021/09/03 09:16:33;;;;;;;7.85;5.85;;;25.60;48.20;;;;;;6156460;29;20430;-78
2021/09/03 09:19:46;;;;;;;8.23;6.22;;;25.60;49.00;;;;;;6169873;28;20546;-78
2021/09/03 09:22:53;;;;;;;9.45;6.18;;;25.30;47.90;;;;;;6176374;28;20493;-78
2021/09/03 09:25:59;;;;;;;7.68;6.35;;;25.20;50.10;;;;;;6177518;28;20781;-78
2021/09/03 09:29:13;;;;;;;9.32;6.18;;;25.40;48.70;;;;;;6177872;28;20670;-79
2021/09/03 09:32:14;;;;;;;6.75;5.25;;;25.90;48.70;;;;;;6178611;28;21049;-78
2021/09/03 09:35:19;;;;;;;7.18;6.18;;;25.90;47.30;;;;;;6177742;28;20494;-77
2021/09/03 09:38:24;;;;;;;5.87;5.27;;;25.90;49.40;;;;;;6177841;28;20475;-78
2021/09/03 09:41:26;;;;;;;9.13;5.70;;;26.10;48.70;;;;;;6179571;28;20506;-78
2021/09/03 09:44:31;;;;;;;6.57;5.10;;;26.50;47.10;;;;;;6178128;28;20527;-77
2021/09/03 09:47:33;;;;;;;8.47;6.10;;;26.80;46.10;;;;;;6178942;28;20521;-78
2021/09/03 09:50:35;;;;;;;7.82;5.25;;;27.00;45.90;;;;;;6176976;28;20477;-78
2021/09/03 09:53:37;;;;;;;11.05;5.93;;;27.20;45.70;;;;;;6154513;28;20422;-77
2021/09/03 09:56:41;;;;;;;6.57;5.97;;;27.40;45.60;;;;;;6154717;29;20465;-78
2021/09/03 09:59:44;;;;;;;8.05;5.93;;;27.40;45.70;;;;;;6154415;28;21176;-79
2021/09/03 10:02:46;;;;;;;8.53;6.30;;;27.20;45.20;;;;;;6153704;28;21178;-77
2021/09/03 10:05:48;;;;;;;8.98;5.82;;;27.00;44.60;;;;;;6156351;28;20475;-78
2021/09/03 10:08:51;;;;;;;11.15;6.10;;;26.90;46.30;;;;;;6168898;28;20522;-78
2021/09/03 10:11:55;;;;;;;6.78;5.80;;;27.20;45.80;;;;;;6177652;28;20531;-77
2021/09/03 10:14:58;;;;;;;6.20;5.32;;;27.40;45.80;;;;;;6176287;28;20424;-78
2021/09/03 10:18:00;;;;;;;8.40;5.60;;;27.60;44.90;;;;;;6176082;28;20499;-78
2021/09/03 10:21:03;;;;;;;8.00;6.00;;;27.60;44.10;;;;;;6168966;28;20515;-79
2021/09/03 10:24:10;;;;;;;8.82;5.95;;;27.80;44.70;;;;;;6176990;28;20606;-78
2021/09/03 10:27:14;;;;;;;6.78;5.97;;;28.00;44.50;;;;;;6176449;28;20502;-78
2021/09/03 10:30:19;;;;;;;8.03;5.70;;;28.00;43.60;;;;;;6175889;28;20444;-78
2021/09/03 10:33:33;;;;;;;9.02;5.88;;;27.90;44.10;;;;;;6174883;28;20423;-78
2021/09/03 10:36:56;;;;;;;8.60;6.18;;;28.30;43.00;;;;;;6176819;28;20579;-78
2021/09/03 10:40:02;;;;;;;6.88;5.20;;;28.60;42.60;;;;;;6153252;28;20418;-78
2021/09/03 10:43:04;;;;;;;7.45;5.57;;;28.90;42.00;;;;;;6169323;28;20431;-78
2021/09/03 10:46:08;;;;;;;7.30;6.17;;;28.90;41.80;;;;;;6174048;28;20506;-77
2021/09/03 10:49:10;;;;;;;7.40;5.20;;;28.70;42.50;;;;;;6170870;28;20513;-78
2021/09/03 10:52:12;;;;;;;7.65;6.03;;;28.70;43.20;;;;;;6145182;29;20934;-77
2021/09/03 10:55:16;;;;;;;6.22;5.60;;;28.70;42.00;;;;;;6152007;29;20951;-79
2021/09/03 10:58:31;;;;;;;7.10;5.77;;;28.90;41.10;;;;;;6163550;28;20528;-79
2021/09/03 11:01:37;;;;;;;7.07;5.57;;;28.80;41.40;;;;;;6175495;28;20921;-77
2021/09/03 11:04:45;;;;;;;5.82;5.28;;;28.80;42.00;;;;;;6175020;28;20948;-78
2021/09/03 11:07:48;;;;;;;7.20;5.60;;;29.30;41.40;;;;;;6168710;28;20424;-77
2021/09/03 11:10:50;;;;;;;6.90;5.55;;;29.70;40.50;;;;;;6154192;28;20939;-79
2021/09/03 11:13:54;;;;;;;6.93;5.93;;;30.20;39.80;;;;;;6152529;28;20453;-78
2021/09/03 11:16:59;;;;;;;7.10;5.25;;;30.40;38.90;;;;;;6151280;29;20442;-78
2021/09/03 11:20:01;;;;;;;8.85;6.22;;;30.50;39.10;;;;;;6166536;28;20442;-79
2021/09/03 11:23:07;;;;;;;6.10;5.50;;;30.60;38.00;;;;;;6175039;28;20455;-79
2021/09/03 11:26:16;;;;;;;7.32;5.47;;;30.50;38.10;;;;;;6175518;28;20564;-77
2021/09/03 11:29:23;;;;;;;7.50;5.72;;;30.60;38.20;;;;;;6175982;28;20443;-77
2021/09/03 11:32:28;;;;;;;7.53;5.40;;;30.90;38.30;;;;;;6174251;28;20537;-78
2021/09/03 11:35:31;;;;;;;7.53;5.22;;;30.50;37.80;;;;;;6173162;28;20822;-77
2021/09/03 11:38:32;;;;;;;9.80;6.75;;;30.00;39.10;;;;;;6173978;28;20975;-77
2021/09/03 11:41:34;;;;;;;7.60;6.03;;;30.30;39.60;;;;;;6172775;28;20872;-78
2021/09/03 11:44:49;;;;;;;6.00;5.40;;;30.80;38.30;;;;;;6174185;28;20523;-78
2021/09/03 11:47:55;;;;;;;8.60;6.22;;;31.30;37.10;;;;;;6174070;28;20972;-78
2021/09/03 11:50:59;;;;;;;6.78;6.07;;;31.30;37.50;;;;;;6165446;28;20432;-78
2021/09/03 11:54:02;;;;;;;7.93;6.10;;;31.20;38.50;;;;;;6174823;28;20416;-79
2021/09/03 11:57:05;;;;;;;12.10;5.37;;;31.10;37.70;;;;;;6174090;28;20447;-79
2021/09/03 12:00:08;;;;;;;7.55;6.13;;;30.70;38.40;;;;;;6173482;28;20494;-78
2021/09/03 12:03:12;;;;;;;8.05;5.80;;;30.30;38.40;;;;;;6173043;28;20984;-77
2021/09/03 12:06:18;;;;;;;9.60;6.65;;;30.60;39.60;;;;;;6180809;28;20487;-78
2021/09/03 12:09:34;;;;;;;6.70;5.72;;;30.90;39.50;;;;;;6170757;28;20449;-78
2021/09/03 12:12:36;;;;;;;7.95;5.43;;;31.00;37.70;;;;;;6151468;28;20448;-78
2021/09/03 12:15:38;;;;;;;7.05;5.43;;;31.00;37.90;;;;;;6150852;29;20505;-78
2021/09/03 12:18:43;;;;;;;7.30;5.15;;;30.90;37.00;;;;;;6161480;28;20416;-78
2021/09/03 12:21:45;;;;;;;6.43;5.57;;;31.10;37.30;;;;;;6166578;28;20494;-78
2021/09/03 12:24:50;;;;;;;6.85;6.13;;;31.50;37.30;;;;;;6174377;28;20475;-79
2021/09/03 12:28:09;;;;;;;5.32;4.82;;;31.80;36.30;;;;;;6175137;28;20435;-78
2021/09/03 12:31:16;;;;;;;10.85;6.13;;;31.50;36.90;;;;;;6175163;28;20519;-79
2021/09/03 12:34:19;;;;;;;10.85;5.18;;;31.40;37.40;;;;;;6173013;28;20482;-78
2021/09/03 12:37:21;;;;;;;8.65;5.32;;;31.60;37.00;;;;;;6173286;28;20482;-78
2021/09/03 12:40:23;;;;;;;6.30;5.55;;;31.80;36.40;;;;;;6177072;28;20435;-78
2021/09/03 12:43:30;;;;;;;8.23;6.07;;;31.70;35.60;;;;;;6178251;28;20446;-77
2021/09/03 12:46:36;;;;;;;6.00;5.30;;;31.90;35.90;;;;;;6176985;28;20452;-77
2021/09/03 12:49:41;;;;;;;6.32;5.57;;;32.40;35.10;;;;;;6172453;28;20426;-77
2021/09/03 12:52:43;;;;;;;6.82;5.72;;;32.80;34.00;;;;;;6172228;28;20850;-78
2021/09/03 12:55:45;;;;;;;6.10;4.73;;;32.70;34.80;;;;;;6155652;28;20515;-78
2021/09/03 12:58:47;;;;;;;5.93;5.33;;;32.30;34.50;;;;;;6164815;28;20818;-77
2021/09/03 13:01:49;;;;;;;7.65;5.47;;;32.00;35.30;;;;;;6177100;28;20515;-79
2021/09/03 13:04:53;;;;;;;7.25;5.70;;;32.20;35.30;;;;;;6176352;28;20527;-78
2021/09/03 13:07:56;;;;;;;7.67;5.87;;;32.60;35.30;;;;;;6177645;28;21655;-78
2021/09/03 13:10:58;;;;;;;6.70;5.75;;;32.90;34.50;;;;;;6173224;28;20447;-79
2021/09/03 13:14:00;;;;;;;7.72;5.50;;;32.70;34.20;;;;;;6176887;28;20420;-78
2021/09/03 13:17:02;;;;;;;8.57;6.10;;;32.10;35.20;;;;;;6176573;28;20529;-78
2021/09/03 13:20:06;;;;;;;7.00;6.20;;;31.60;35.90;;;;;;6170270;28;21002;-78
2021/09/03 13:23:08;;;;;;;8.20;5.50;;;31.50;36.20;;;;;;6176975;28;20416;-78
2021/09/03 13:26:10;;;;;;;8.88;5.93;;;32.00;35.10;;;;;;6178212;28;20432;-77
2021/09/03 13:29:12;;;;;;;8.43;5.43;;;32.30;35.20;;;;;;6175985;28;20443;-77
2021/09/03 13:32:14;;;;;;;6.30;5.17;;;32.10;34.30;;;;;;6175988;28;20530;-78
2021/09/03 13:35:18;;;;;;;7.75;5.78;;;31.80;35.00;;;;;;6175471;28;20463;-77
2021/09/03 13:38:19;;;;;;;6.05;5.35;;;31.50;35.40;;;;;;6177435;28;20830;-78
2021/09/03 13:41:22;;;;;;;7.95;5.65;;;31.30;35.90;;;;;;6176307;28;20514;-77
2021/09/03 13:44:23;;;;;;;8.52;5.70;;;31.40;36.50;;;;;;6177665;28;20436;-77
2021/09/03 13:47:25;;;;;;;7.17;5.37;;;31.60;35.90;;;;;;6175955;28;21048;-78
2021/09/03 13:50:29;;;;;;;6.33;5.10;;;31.70;36.30;;;;;;6165625;28;21076;-78
2021/09/03 13:53:31;;;;;;;6.85;6.13;;;31.80;35.10;;;;;;6175258;28;20420;-80
2021/09/03 13:56:33;;;;;;;7.17;5.40;;;31.70;36.10;;;;;;6176188;28;20917;-77
2021/09/03 13:59:34;;;;;;;7.53;5.07;;;31.90;35.60;;;;;;6174970;28;20424;-77
2021/09/03 14:02:36;;;;;;;7.20;5.55;;;31.70;35.40;;;;;;6175179;28;20444;-77
2021/09/03 14:05:41;;;;;;;6.68;4.85;;;31.70;35.60;;;;;;6174282;28;20416;-78
2021/09/03 14:08:43;;;;;;;7.18;5.20;;;31.90;34.50;;;;;;6174923;28;20587;-78
2021/09/03 14:11:46;;;;;;;7.73;5.53;;;32.40;34.40;;;;;;6166687;28;20546;-76
2021/09/03 14:14:48;;;;;;;5.77;5.03;;;32.60;34.60;;;;;;6175971;28;20507;-76
2021/09/03 14:17:50;;;;;;;8.63;5.47;;;32.80;34.70;;;;;;6173865;28;20516;-76
2021/09/03 14:20:53;;;;;;;6.85;6.15;;;32.60;35.00;;;;;;6164086;28;20928;-76
2021/09/03 14:23:55;;;;;;;8.82;5.60;;;32.20;36.10;;;;;;6174719;28;20447;-77
2021/09/03 14:26:57;;;;;;;7.13;6.23;;;31.90;36.60;;;;;;6174540;28;20435;-78
2021/09/03 14:29:59;;;;;;;6.35;5.75;;;32.00;36.60;;;;;;6174991;28;20416;-78
2021/09/03 14:33:00;;;;;;;6.43;5.30;;;32.40;35.30;;;;;;6175047;28;20526;-77
2021/09/03 14:36:05;;;;;;;7.60;6.13;;;32.40;34.50;;;;;;6175265;28;20468;-77
2021/09/03 14:39:08;;;;;;;8.88;6.25;;;31.90;35.40;;;;;;6174668;28;20420;-77
2021/09/03 14:42:10;;;;;;;7.85;5.65;;;32.20;36.10;;;;;;6175919;28;20439;-77
2021/09/03 14:45:12;;;;;;;7.32;6.10;;;32.60;34.70;;;;;;6173820;28;20495;-77
2021/09/03 14:48:14;;;;;;;6.95;5.97;;;32.50;34.70;;;;;;6174288;28;20451;-77
2021/09/03 14:51:17;;;;;;;7.63;5.10;;;32.00;34.90;;;;;;6165376;28;20424;-77
2021/09/03 14:54:19;;;;;;;6.05;5.22;;;31.70;36.90;;;;;;6174296;28;20573;-77
2021/09/03 14:57:21;;;;;;;6.67;6.03;;;31.70;35.50;;;;;;6173264;28;20447;-77
2021/09/03 15:00:23;;;;;;;6.72;5.80;;;32.10;34.90;;;;;;6174837;28;20981;-77
2021/09/03 15:03:25;;;;;;;5.47;4.93;;;32.30;34.90;;;;;;6173599;28;20431;-77
2021/09/03 15:06:28;;;;;;;8.17;5.27;;;32.30;35.00;;;;;;6174164;28;20440;-76
2021/09/03 15:09:30;;;;;;;6.95;5.97;;;32.30;35.20;;;;;;6173925;28;20502;-77
2021/09/03 15:12:32;;;;;;;5.90;5.30;;;32.20;34.50;;;;;;6163925;28;20451;-76
2021/09/03 15:15:34;;;;;;;7.95;6.22;;;32.00;35.00;;;;;;6148925;29;20418;-77
2021/09/03 15:18:36;;;;;;;5.80;5.13;;;31.80;34.70;;;;;;6159376;28;20502;-77
2021/09/03 15:21:40;;;;;;;8.05;5.90;;;31.60;35.50;;;;;;6164897;28;20519;-77
2021/09/03 15:24:42;;;;;;;6.40;5.50;;;31.20;35.20;;;;;;6172764;28;20467;-77
2021/09/03 15:27:44;;;;;;;7.93;5.25;;;30.60;36.50;;;;;;6173471;28;20509;-77
2021/09/03 15:30:46;;;;;;;17.10;5.78;;;30.30;37.20;;;;;;6173145;28;20940;-77
2021/09/03 15:33:48;;;;;;;8.45;5.88;;;29.90;39.20;;;;;;6174599;28;20887;-78
2021/09/03 15:36:55;;;;;;;6.53;5.63;;;29.90;38.50;;;;;;6185098;28;20432;-77
2021/09/03 15:39:57;;;;;;;14.68;6.22;;;29.80;39.20;;;;;;6175789;28;20802;-78
2021/09/03 15:42:59;;;;;;;8.00;6.13;;;29.70;39.50;;;;;;6171658;28;20472;-78
2021/09/03 15:46:01;;;;;;;7.28;5.47;;;29.60;39.60;;;;;;6171810;28;20459;-77
2021/09/03 15:49:03;;;;;;;8.68;6.30;;;29.40;40.40;;;;;;6172215;28;20488;-77